createdAt,value
2023-03-20T00:00:02.560Z,6.60
2023-03-20T00:02:35.074Z,6.50
2023-03-20T00:05:32.724Z,6.40
2023-03-20T00:08:03.149Z,6.20
2023-03-20T00:10:41.687Z,6.00
2023-03-20T00:13:20.803Z,7.60
2023-03-20T00:15:49.238Z,7.10
2023-03-20T00:18:20.232Z,8.00
2023-03-20T00:20:56.182Z,7.70
2023-03-20T00:23:24.924Z,7.60
2023-03-20T00:25:53.503Z,7.10
2023-03-20T00:28:44.938Z,7.00
2023-03-20T00:31:27.066Z,6.20
2023-03-20T00:33:57.600Z,7.00
2023-03-20T00:36:26.272Z,6.30
2023-03-20T00:38:58.327Z,7.20
2023-03-20T00:41:27.825Z,7.50
2023-03-20T00:44:04.798Z,6.50
2023-03-20T00:46:38.758Z,7.40
2023-03-20T00:49:11.835Z,7.60
2023-03-20T00:51:40.300Z,6.70
2023-03-20T00:54:16.739Z,7.10
2023-03-20T00:56:54.670Z,6.70
2023-03-20T00:59:25.277Z,6.90
2023-03-20T01:01:54.017Z,7.80
2023-03-20T01:04:24.251Z,7.30
2023-03-20T01:06:52.904Z,7.90
2023-03-20T01:09:21.306Z,7.40
2023-03-20T01:11:50.206Z,6.90
2023-03-20T01:14:20.298Z,7.80
2023-03-20T01:16:49.082Z,8.10
2023-03-20T01:19:18.006Z,7.10
2023-03-20T01:21:47.050Z,8.30
2023-03-20T01:24:15.758Z,7.80
2023-03-20T01:26:44.919Z,7.60
2023-03-20T01:29:22.539Z,7.70
2023-03-20T01:31:51.450Z,7.80
2023-03-20T01:34:21.290Z,7.20
2023-03-20T01:36:55.623Z,6.60
2023-03-20T01:39:31.781Z,8.00
2023-03-20T01:42:00.922Z,6.30
2023-03-20T01:44:32.290Z,6.40
2023-03-20T01:47:01.733Z,6.60
2023-03-20T01:50:08.556Z,7.60
2023-03-20T01:52:38.007Z,6.80
2023-03-20T01:55:07.220Z,6.70
2023-03-20T01:57:37.892Z,7.50
2023-03-20T02:00:10.409Z,8.40
2023-03-20T02:02:47.330Z,8.10
2023-03-20T02:05:26.875Z,7.70
2023-03-20T02:08:35.145Z,8.00
2023-03-20T02:11:04.096Z,7.70
2023-03-20T02:13:32.979Z,7.60
2023-03-20T02:16:09.851Z,7.40
2023-03-20T02:18:58.732Z,6.80
2023-03-20T02:21:46.238Z,11.00
2023-03-20T02:24:26.032Z,13.00
2023-03-20T02:27:02.933Z,12.10
2023-03-20T02:29:56.180Z,9.10
2023-03-20T02:32:27.962Z,7.90
2023-03-20T02:35:26.166Z,8.10
2023-03-20T02:38:13.352Z,8.30
2023-03-20T02:40:51.186Z,11.40
2023-03-20T02:43:26.414Z,9.80
2023-03-20T02:45:58.197Z,7.90
2023-03-20T02:48:55.958Z,10.10
2023-03-20T02:51:34.103Z,12.10
2023-03-20T02:54:17.041Z,11.80
2023-03-20T02:57:04.572Z,10.60
2023-03-20T02:59:49.044Z,9.90
2023-03-20T03:02:20.616Z,8.40
2023-03-20T03:04:57.452Z,7.80
2023-03-20T03:07:27.506Z,8.80
2023-03-20T03:09:59.836Z,8.30
2023-03-20T03:12:31.024Z,10.80
2023-03-20T03:15:05.297Z,10.20
2023-03-20T03:17:35.095Z,8.50
2023-03-20T03:20:08.140Z,12.30
2023-03-20T03:25:10.687Z,11.70
2023-03-20T03:27:42.088Z,18.90
2023-03-20T03:30:19.525Z,22.20
2023-03-20T03:32:52.065Z,11.70
2023-03-20T03:35:21.551Z,12.50
2023-03-20T03:38:03.224Z,9.40
2023-03-20T03:40:41.439Z,10.30
2023-03-20T03:43:19.465Z,7.80
2023-03-20T03:46:15.286Z,9.40
2023-03-20T03:48:46.367Z,7.80
2023-03-20T03:51:17.320Z,8.40
2023-03-20T03:54:09.554Z,7.90
2023-03-20T03:56:39.196Z,8.30
2023-03-20T03:59:25.211Z,9.10
2023-03-20T04:01:54.003Z,8.20
2023-03-20T04:04:22.573Z,9.30
2023-03-20T04:06:51.496Z,8.90
2023-03-20T04:09:20.229Z,8.10
2023-03-20T04:11:53.731Z,8.60
2023-03-20T04:14:22.444Z,8.20
2023-03-20T04:16:51.291Z,9.10
2023-03-20T04:19:24.513Z,9.30
2023-03-20T04:21:55.586Z,7.30
2023-03-20T04:24:23.994Z,9.20
2023-03-20T04:26:52.577Z,8.30
2023-03-20T04:29:21.824Z,12.20
2023-03-20T04:32:08.180Z,12.00
2023-03-20T04:34:47.351Z,17.80
2023-03-20T04:37:32.304Z,18.70
2023-03-20T04:40:06.175Z,18.60
2023-03-20T04:42:35.235Z,21.90
2023-03-20T04:45:08.972Z,27.70
2023-03-20T04:47:39.891Z,25.30
2023-03-20T04:50:09.710Z,23.10
2023-03-20T04:52:38.655Z,17.20
2023-03-20T04:55:16.316Z,16.60
2023-03-20T04:57:45.489Z,12.40
2023-03-20T05:00:14.570Z,10.30
2023-03-20T05:02:43.811Z,23.30
2023-03-20T05:05:13.323Z,13.50
2023-03-20T05:07:45.566Z,13.00
2023-03-20T05:10:22.136Z,10.70
2023-03-20T05:12:57.145Z,13.40
2023-03-20T05:15:56.956Z,10.50
2023-03-20T05:18:47.677Z,13.20
2023-03-20T05:21:35.294Z,13.20
2023-03-20T05:24:27.727Z,11.50
2023-03-20T05:27:26.294Z,10.60
2023-03-20T05:30:19.955Z,12.20
2023-03-20T05:32:52.537Z,10.30
2023-03-20T05:35:30.213Z,10.10
2023-03-20T05:38:23.196Z,9.50
2023-03-20T05:41:06.009Z,11.00
2023-03-20T05:43:58.625Z,10.20
2023-03-20T05:47:06.471Z,10.80
2023-03-20T05:50:13.485Z,10.40
2023-03-20T05:53:01.919Z,15.50
2023-03-20T05:55:45.032Z,13.20
2023-03-20T05:58:32.056Z,36.50
2023-03-20T06:01:24.080Z,15.20
2023-03-20T06:04:26.249Z,23.60
2023-03-20T06:07:13.577Z,15.10
2023-03-20T06:09:44.323Z,14.40
2023-03-20T06:12:14.788Z,13.10
2023-03-20T06:14:44.216Z,12.50
2023-03-20T06:17:13.564Z,13.80
2023-03-20T06:19:44.988Z,13.00
2023-03-20T06:22:13.744Z,13.50
2023-03-20T06:24:46.597Z,12.10
2023-03-20T06:27:16.517Z,12.80
2023-03-20T06:29:48.496Z,13.50
2023-03-20T06:32:24.906Z,15.30
2023-03-20T06:34:54.621Z,17.10
2023-03-20T06:37:26.749Z,21.80
2023-03-20T06:40:04.032Z,16.40
2023-03-20T06:42:32.787Z,13.90
2023-03-20T06:45:01.675Z,14.40
2023-03-20T06:48:09.813Z,19.60
2023-03-20T06:50:39.790Z,15.50
2023-03-20T06:53:08.761Z,12.70
2023-03-20T06:55:54.981Z,22.30
2023-03-20T06:58:24.851Z,15.00
2023-03-20T07:00:54.859Z,13.30
2023-03-20T07:03:23.985Z,11.40
2023-03-20T07:05:53.094Z,23.60
2023-03-20T07:08:22.074Z,12.50
2023-03-20T07:10:52.092Z,11.80
2023-03-20T07:13:21.020Z,12.00
2023-03-20T07:16:09.221Z,19.90
2023-03-20T07:18:40.346Z,14.70
2023-03-20T07:21:09.466Z,17.20
2023-03-20T07:23:38.922Z,17.10
2023-03-20T07:26:07.476Z,17.30
2023-03-20T07:28:38.582Z,15.80
2023-03-20T07:31:29.401Z,13.80
2023-03-20T07:34:05.208Z,15.10
2023-03-20T07:36:36.044Z,14.40
2023-03-20T07:39:05.010Z,12.80
2023-03-20T07:41:34.478Z,12.50
2023-03-20T07:44:10.763Z,12.00
2023-03-20T07:47:08.414Z,13.00
2023-03-20T07:49:38.623Z,13.30
2023-03-20T07:52:09.457Z,10.90
2023-03-20T07:54:38.279Z,14.40
2023-03-20T07:57:06.764Z,11.20
2023-03-20T07:59:37.047Z,13.20
2023-03-20T08:02:05.558Z,24.10
2023-03-20T08:04:36.832Z,20.60
2023-03-20T08:07:06.983Z,17.30
2023-03-20T08:09:36.359Z,14.30
2023-03-20T08:12:11.022Z,14.80
2023-03-20T08:14:44.354Z,21.10
2023-03-20T08:17:19.505Z,71.40
2023-03-20T08:19:49.685Z,35.40
2023-03-20T08:22:18.558Z,15.10
2023-03-20T08:24:46.996Z,17.40
2023-03-20T08:27:17.543Z,24.50
2023-03-20T08:29:46.638Z,19.40
2023-03-20T08:32:15.138Z,13.90
2023-03-20T08:34:45.094Z,19.70
2023-03-20T08:37:14.353Z,17.60
2023-03-20T08:39:45.666Z,33.30
2023-03-20T08:42:15.284Z,25.30
2023-03-20T08:44:48.440Z,15.30
2023-03-20T08:47:17.120Z,14.30
2023-03-20T08:49:46.695Z,12.50
2023-03-20T08:52:15.774Z,18.70
2023-03-20T08:54:47.214Z,17.80
2023-03-20T08:57:20.782Z,18.00
2023-03-20T08:59:49.449Z,14.00
2023-03-20T09:02:20.648Z,11.40
2023-03-20T09:04:59.816Z,9.00
2023-03-20T09:07:35.227Z,10.10
2023-03-20T09:10:05.980Z,10.10
2023-03-20T09:12:38.613Z,15.90
2023-03-20T09:15:12.080Z,13.30
2023-03-20T09:17:45.832Z,13.40
2023-03-20T09:20:14.646Z,12.50
2023-03-20T09:22:45.348Z,12.40
2023-03-20T09:25:14.186Z,12.90
2023-03-20T09:27:43.868Z,13.70
2023-03-20T09:30:13.197Z,15.90
2023-03-20T09:32:48.537Z,13.20
2023-03-20T09:35:17.443Z,12.30
2023-03-20T09:37:46.441Z,12.40
2023-03-20T09:40:52.650Z,11.30
2023-03-20T09:43:26.991Z,14.10
2023-03-20T09:46:25.203Z,13.20
2023-03-20T09:49:38.733Z,12.20
2023-03-20T09:52:26.902Z,11.50
2023-03-20T09:55:24.074Z,12.10
2023-03-20T09:58:03.003Z,10.80
2023-03-20T10:00:31.807Z,10.20
2023-03-20T10:03:06.522Z,11.30
2023-03-20T10:05:52.432Z,9.90
2023-03-20T10:08:22.494Z,12.70
2023-03-20T10:11:00.476Z,10.60
2023-03-20T10:13:37.991Z,11.50
2023-03-20T10:16:23.282Z,12.00
2023-03-20T10:19:02.862Z,15.10
2023-03-20T10:21:46.209Z,17.90
2023-03-20T10:24:36.939Z,12.50
2023-03-20T10:27:19.408Z,11.20
2023-03-20T10:30:20.819Z,10.90
2023-03-20T10:33:15.614Z,11.40
2023-03-20T10:36:11.479Z,10.50
2023-03-20T10:39:03.562Z,10.30
2023-03-20T10:41:35.459Z,14.10
2023-03-20T10:44:05.019Z,16.20
2023-03-20T10:46:41.130Z,12.20
2023-03-20T10:49:19.125Z,11.70
2023-03-20T10:51:52.748Z,10.30
2023-03-20T10:54:25.242Z,12.30
2023-03-20T10:56:56.630Z,10.50
2023-03-20T10:59:35.606Z,12.10
2023-03-20T11:02:12.400Z,14.90
2023-03-20T11:04:40.985Z,13.50
2023-03-20T11:07:21.873Z,12.30
2023-03-20T11:10:05.786Z,11.80
2023-03-20T11:12:55.371Z,14.40
2023-03-20T11:15:30.087Z,12.50
2023-03-20T11:17:58.622Z,13.10
2023-03-20T11:20:28.298Z,12.50
2023-03-20T11:23:07.280Z,14.00
2023-03-20T11:25:40.101Z,15.20
2023-03-20T11:28:31.652Z,11.70
2023-03-20T11:31:08.440Z,11.60
2023-03-20T11:33:45.128Z,11.50
2023-03-20T11:36:31.055Z,11.80
2023-03-20T11:39:07.160Z,11.40
2023-03-20T11:41:52.294Z,12.40
2023-03-20T11:44:35.955Z,9.90
2023-03-20T11:49:45.955Z,11.40
2023-03-20T11:52:15.764Z,10.00
2023-03-20T11:54:51.809Z,9.80
2023-03-20T11:57:36.886Z,9.20
2023-03-20T12:00:08.119Z,9.90
2023-03-20T12:02:42.441Z,8.20
2023-03-20T12:05:30.310Z,15.40
2023-03-20T12:08:22.740Z,10.50
2023-03-20T12:10:55.225Z,8.50
2023-03-20T12:13:30.093Z,9.80
2023-03-20T12:16:04.916Z,8.60
2023-03-20T12:18:45.777Z,9.30
2023-03-20T12:21:19.707Z,8.20
2023-03-20T12:23:49.227Z,8.20
2023-03-20T12:26:35.208Z,9.00
2023-03-20T12:29:38.432Z,9.20
2023-03-20T12:32:20.661Z,13.70
2023-03-20T12:35:06.283Z,21.10
2023-03-20T12:37:35.508Z,12.70
2023-03-20T12:40:04.706Z,13.70
2023-03-20T12:42:39.751Z,12.80
2023-03-20T12:45:19.082Z,12.10
2023-03-20T12:48:22.806Z,9.50
2023-03-20T12:50:59.323Z,10.90
2023-03-20T12:53:31.882Z,9.30
2023-03-20T12:56:27.187Z,11.10
2023-03-20T12:59:00.723Z,8.10
2023-03-20T13:02:04.388Z,8.90
2023-03-20T13:04:42.270Z,9.60
2023-03-20T13:07:31.089Z,9.60
2023-03-20T13:10:16.780Z,10.70
2023-03-20T13:13:14.983Z,10.30
2023-03-20T13:15:52.430Z,11.40
2023-03-20T13:18:55.114Z,8.50
2023-03-20T13:21:45.693Z,9.70
2023-03-20T13:24:23.072Z,9.70
2023-03-20T13:27:13.382Z,10.60
2023-03-20T13:29:59.788Z,11.20
2023-03-20T13:32:38.897Z,9.10
2023-03-20T13:35:36.665Z,8.50
2023-03-20T13:38:19.409Z,8.40
2023-03-20T13:40:53.031Z,8.40
2023-03-20T13:43:38.452Z,8.10
2023-03-20T13:46:16.862Z,9.30
2023-03-20T13:48:45.406Z,10.70
2023-03-20T13:51:22.680Z,10.90
2023-03-20T13:53:54.565Z,9.90
2023-03-20T13:56:29.703Z,9.80
2023-03-20T13:59:29.787Z,9.40
2023-03-20T14:02:19.091Z,10.30
2023-03-20T14:04:50.158Z,9.90
2023-03-20T14:07:36.280Z,9.90
2023-03-20T14:10:23.160Z,12.00
2023-03-20T14:12:57.017Z,12.60
2023-03-20T14:15:27.458Z,12.40
2023-03-20T14:17:56.627Z,12.20
2023-03-20T14:20:38.095Z,9.10
2023-03-20T14:23:07.670Z,8.50
2023-03-20T14:25:40.604Z,8.90
2023-03-20T14:28:13.199Z,8.20
2023-03-20T14:30:46.793Z,7.60
2023-03-20T14:33:22.456Z,8.70
2023-03-20T14:36:12.241Z,9.30
2023-03-20T14:39:31.238Z,7.90
2023-03-20T14:42:02.317Z,8.20
2023-03-20T14:45:07.012Z,7.80
2023-03-20T14:47:44.895Z,7.90
2023-03-20T14:50:35.593Z,8.40
2023-03-20T14:53:17.282Z,8.20
2023-03-20T14:55:52.044Z,8.80
2023-03-20T14:58:53.737Z,8.00
2023-03-20T15:01:22.135Z,8.50
2023-03-20T15:04:00.178Z,9.80
2023-03-20T15:06:29.291Z,8.90
2023-03-20T15:09:05.150Z,7.90
2023-03-20T15:11:34.600Z,8.30
2023-03-20T15:14:06.613Z,8.60
2023-03-20T15:16:37.386Z,11.40
2023-03-20T15:19:15.697Z,9.30
2023-03-20T15:21:48.611Z,9.70
2023-03-20T15:24:30.184Z,12.30
2023-03-20T15:27:00.561Z,11.30
2023-03-20T15:29:29.951Z,10.40
2023-03-20T15:32:12.888Z,9.80
2023-03-20T15:34:43.077Z,8.60
2023-03-20T15:37:16.361Z,11.10
2023-03-20T15:39:56.408Z,10.90
2023-03-20T15:42:25.497Z,13.50
2023-03-20T15:44:54.799Z,42.90
2023-03-20T15:47:25.035Z,47.20
2023-03-20T15:49:58.175Z,22.90
2023-03-20T15:55:00.128Z,14.30
2023-03-20T15:57:35.768Z,14.70
2023-03-20T16:00:06.624Z,14.30
2023-03-20T16:02:36.438Z,12.80
2023-03-20T16:05:05.385Z,13.10
2023-03-20T16:07:35.728Z,18.00
2023-03-20T16:10:31.473Z,13.30
2023-03-20T16:13:02.589Z,12.20
2023-03-20T16:15:31.802Z,11.50
2023-03-20T16:18:04.870Z,13.60
2023-03-20T16:20:36.678Z,13.10
2023-03-20T16:23:07.277Z,12.00
2023-03-20T16:25:36.544Z,11.60
2023-03-20T16:28:07.412Z,11.30
2023-03-20T16:30:37.152Z,12.70
2023-03-20T16:33:10.401Z,11.90
2023-03-20T16:35:40.780Z,11.30
2023-03-20T16:38:29.500Z,11.70
2023-03-20T16:41:17.862Z,9.50
2023-03-20T16:43:48.132Z,9.70
2023-03-20T16:46:27.126Z,10.10
2023-03-20T16:49:19.532Z,21.90
2023-03-20T16:51:48.375Z,33.30
2023-03-20T16:54:21.346Z,47.90
2023-03-20T16:56:53.795Z,51.50
2023-03-20T16:59:22.360Z,52.40
2023-03-20T17:01:54.270Z,75.00
2023-03-20T17:04:36.377Z,54.50
2023-03-20T17:07:08.706Z,50.30
2023-03-20T17:09:38.635Z,42.80
2023-03-20T17:12:18.175Z,28.10
2023-03-20T17:14:47.273Z,23.80
2023-03-20T17:17:19.432Z,22.10
2023-03-20T17:19:52.239Z,17.00
2023-03-20T17:22:25.769Z,17.70
2023-03-20T17:24:54.162Z,20.00
2023-03-20T17:27:25.951Z,20.70
2023-03-20T17:29:56.411Z,19.20
2023-03-20T17:32:24.943Z,18.60
2023-03-20T17:34:53.741Z,16.30
2023-03-20T17:37:25.615Z,15.90
2023-03-20T17:39:56.514Z,14.80
2023-03-20T17:42:27.357Z,16.90
2023-03-20T17:44:59.565Z,15.00
2023-03-20T17:47:46.294Z,14.00
2023-03-20T17:50:27.704Z,14.90
2023-03-20T17:52:56.289Z,12.40
2023-03-20T17:55:24.729Z,13.80
2023-03-20T17:57:53.974Z,16.80
2023-03-20T18:00:29.331Z,15.60
2023-03-20T18:02:58.193Z,13.80
2023-03-20T18:05:28.847Z,14.40
2023-03-20T18:07:57.321Z,14.30
2023-03-20T18:10:28.567Z,15.30
2023-03-20T18:12:57.305Z,17.50
2023-03-20T18:15:26.275Z,17.80
2023-03-20T18:17:54.915Z,16.50
2023-03-20T18:20:31.150Z,14.60
2023-03-20T18:23:01.015Z,16.80
2023-03-20T18:25:30.374Z,14.90
2023-03-20T18:28:01.275Z,14.70
2023-03-20T18:30:35.509Z,12.10
2023-03-20T18:33:05.925Z,11.80
2023-03-20T18:35:36.167Z,11.40
2023-03-20T18:38:04.855Z,10.80
2023-03-20T18:40:35.507Z,12.10
2023-03-20T18:43:05.366Z,11.20
2023-03-20T18:45:39.020Z,11.40
2023-03-20T18:48:27.420Z,11.50
2023-03-20T18:51:02.096Z,11.50
2023-03-20T18:53:30.932Z,11.60
2023-03-20T18:56:00.819Z,12.00
2023-03-20T18:58:32.542Z,12.40
2023-03-20T19:01:01.147Z,13.60
2023-03-20T19:03:29.897Z,14.10
2023-03-20T19:05:58.898Z,13.90
2023-03-20T19:08:27.663Z,12.70
2023-03-20T19:11:01.700Z,10.20
2023-03-20T19:13:31.040Z,9.90
2023-03-20T19:15:59.539Z,7.80
2023-03-20T19:18:29.173Z,9.70
2023-03-20T19:20:58.145Z,10.20
2023-03-20T19:23:29.148Z,9.30
2023-03-20T19:25:57.724Z,9.30
2023-03-20T19:28:38.649Z,9.20
2023-03-20T19:31:08.228Z,9.30
2023-03-20T19:33:39.051Z,9.80
2023-03-20T19:36:11.909Z,9.70
2023-03-20T19:38:40.598Z,9.20
2023-03-20T19:41:09.038Z,8.80
2023-03-20T19:43:51.646Z,8.60
2023-03-20T19:46:38.680Z,8.50
2023-03-20T19:49:20.066Z,8.10
2023-03-20T19:51:49.357Z,8.80
2023-03-20T19:54:19.496Z,9.30
2023-03-20T19:56:48.615Z,10.00
2023-03-20T19:59:17.368Z,8.50
2023-03-20T20:01:47.242Z,11.00
2023-03-20T20:04:16.427Z,9.60
2023-03-20T20:06:47.408Z,10.90
2023-03-20T20:09:16.535Z,31.80
2023-03-20T20:11:45.100Z,42.70
2023-03-20T20:14:15.289Z,46.10
2023-03-20T20:16:46.064Z,44.50
2023-03-20T20:19:21.740Z,40.70
2023-03-20T20:24:41.622Z,33.90
2023-03-20T20:27:18.234Z,31.30
2023-03-20T20:29:51.755Z,28.10
2023-03-20T20:32:24.256Z,28.70
2023-03-20T20:40:32.878Z,23.20
2023-03-20T20:43:09.707Z,24.70
2023-03-20T20:45:46.739Z,21.10
2023-03-20T20:48:19.068Z,21.10
2023-03-20T20:50:48.945Z,20.50
2023-03-20T20:53:17.874Z,16.90
2023-03-20T20:55:46.571Z,15.50
2023-03-20T20:58:18.096Z,13.20
2023-03-20T21:00:54.754Z,11.50
2023-03-20T21:03:23.941Z,11.00
2023-03-20T21:05:53.218Z,12.40
2023-03-20T21:08:22.289Z,11.10
2023-03-20T21:10:55.642Z,10.40
2023-03-20T21:13:24.365Z,10.20
2023-03-20T21:16:00.341Z,9.20
2023-03-20T21:18:29.345Z,9.30
2023-03-20T21:21:08.680Z,9.10
2023-03-20T21:23:37.372Z,9.60
2023-03-20T21:26:08.343Z,10.20
2023-03-20T21:28:37.401Z,9.10
2023-03-20T21:31:24.186Z,10.50
2023-03-20T21:33:55.793Z,11.10
2023-03-20T21:36:24.315Z,13.00
2023-03-20T21:39:07.221Z,11.60
2023-03-20T21:41:38.118Z,10.80
2023-03-20T21:44:07.726Z,10.80
2023-03-20T21:50:23.266Z,11.90
2023-03-20T21:58:36.863Z,12.80
2023-03-20T22:01:34.003Z,14.50
2023-03-20T22:04:31.551Z,18.80
2023-03-20T22:18:12.305Z,21.00
2023-03-20T22:44:26.046Z,18.10
2023-03-20T22:46:22.657Z,18.60
2023-03-20T22:48:51.797Z,17.20
2023-03-20T22:51:28.621Z,18.60
2023-03-20T22:54:01.793Z,16.90
2023-03-20T22:56:31.533Z,18.80
2023-03-20T22:58:59.882Z,16.50
2023-03-20T23:01:29.154Z,15.00
2023-03-20T23:03:57.961Z,17.30
2023-03-20T23:06:27.803Z,15.50
2023-03-20T23:08:58.542Z,14.30
2023-03-20T23:11:31.104Z,15.00
2023-03-20T23:14:03.733Z,16.90
2023-03-20T23:16:34.688Z,14.40
2023-03-20T23:19:03.107Z,14.50
2023-03-20T23:21:33.689Z,14.90
2023-03-20T23:24:02.119Z,14.20
2023-03-20T23:26:31.284Z,14.10
2023-03-20T23:29:01.932Z,14.80
2023-03-20T23:31:30.922Z,13.40
2023-03-20T23:34:02.024Z,13.80
2023-03-20T23:36:38.485Z,13.90
2023-03-20T23:39:07.810Z,13.80
2023-03-20T23:44:26.581Z,14.30
2023-03-20T23:46:59.740Z,14.30
2023-03-20T23:49:30.645Z,14.90
2023-03-20T23:51:59.676Z,16.20
2023-03-20T23:54:28.499Z,15.80
2023-03-20T23:56:56.985Z,14.80
2023-03-20T23:59:25.840Z,15.80
